Time;durP1;ratioP1;P1;durP2;ratioP2;P2;SDS_P1;SDS_P2;PMS_P1;PMS_P2;Temp;Humidity;BMP_temperature;BMP_pressure;BME280_temperature;BME280_humidity;BME280_pressure;Samples;Min_cycle;Max_cycle;Signal;HPM_P1;HPM_P2
2021/04/25 00:02:29;;;;;;;17.20;8.50;;;;;;;3.06;62.02;98160.39;1799865;77;22998;-78
2021/04/25 00:05:04;;;;;;;15.70;8.93;;;;;;;2.96;63.57;98156.42;1776317;80;21517;-79
2021/04/25 00:07:32;;;;;;;18.85;8.33;;;;;;;2.92;62.72;98142.88;1781392;80;21476;-76
2021/04/25 00:10:00;;;;;;;15.83;8.15;;;;;;;2.90;62.54;98149.83;1742217;81;21105;-76
2021/04/25 00:12:30;;;;;;;15.65;8.50;;;;;;;2.94;63.25;98145.51;1704784;83;21135;-78
2021/04/25 00:15:06;;;;;;;16.05;8.68;;;;;;;2.94;62.98;98145.05;1719638;83;21117;-79
2021/04/25 00:20:23;;;;;;;16.80;8.53;;;;;;;2.96;63.21;98132.86;1803423;79;23158;-79
2021/04/25 00:23:04;;;;;;;14.10;7.62;;;;;;;2.96;62.14;98131.97;1829936;76;21821;-79
2021/04/25 00:25:39;;;;;;;18.67;9.40;;;;;;;2.90;62.07;98135.02;1840508;77;21603;-77
2021/04/25 00:30:59;;;;;;;14.60;8.68;;;;;;;2.89;62.19;98123.22;1765112;79;23505;-79
2021/04/25 00:33:34;;;;;;;16.15;8.05;;;;;;;2.81;63.64;98127.13;1757776;81;21171;-79
2021/04/25 00:36:21;;;;;;;16.77;8.30;;;;;;;2.79;63.74;98115.78;1820903;77;23099;-79
2021/04/25 00:38:57;;;;;;;13.50;8.50;;;;;;;2.70;63.61;98115.30;1815213;79;21171;-79
2021/04/25 00:41:32;;;;;;;19.37;8.35;;;;;;;2.66;63.17;98122.72;1815718;79;21578;-79
2021/04/25 00:44:00;;;;;;;16.95;8.65;;;;;;;2.60;63.73;98122.25;1815064;77;21168;-79
2021/04/25 00:46:44;;;;;;;16.57;8.05;;;;;;;2.65;63.04;98119.64;1756678;79;22730;-79
2021/04/25 00:49:32;;;;;;;15.63;8.80;;;;;;;2.66;62.98;98126.64;1823864;77;23058;-77
2021/04/25 00:52:06;;;;;;;15.28;8.18;;;;;;;2.61;63.17;98133.57;1852515;77;21545;-78
2021/04/25 00:54:49;;;;;;;15.72;8.50;;;;;;;2.64;63.57;98133.59;1852623;77;21110;-78
2021/04/25 00:57:21;;;;;;;18.52;8.35;;;;;;;2.64;64.13;98134.48;1849924;77;21130;-79
2021/04/25 00:59:54;;;;;;;17.92;8.03;;;;;;;2.62;64.42;98124.88;1829897;77;21146;-78
2021/04/25 01:02:25;;;;;;;14.03;7.83;;;;;;;2.67;63.65;98123.58;1856808;77;21145;-79
2021/04/25 01:04:53;;;;;;;15.43;6.80;;;;;;;2.67;63.67;98124.46;1843448;77;21111;-78
2021/04/25 01:07:21;;;;;;;14.93;8.23;;;;;;;2.65;63.76;98122.25;1780732;80;21189;-79
2021/04/25 01:09:50;;;;;;;14.20;7.45;;;;;;;2.66;63.40;98122.72;1781793;80;21543;-78
2021/04/25 01:12:23;;;;;;;15.45;7.33;;;;;;;2.71;63.23;98112.25;1795957;79;21129;-78
2021/04/25 01:14:53;;;;;;;15.60;7.33;;;;;;;2.76;62.87;98117.08;1801550;79;21125;-77
2021/04/25 01:17:21;;;;;;;13.05;7.12;;;;;;;2.77;62.92;98109.23;1789922;80;21143;-78
2021/04/25 01:19:50;;;;;;;11.65;6.35;;;;;;;2.77;62.81;98113.16;1823355;79;21087;-78
2021/04/25 01:22:18;;;;;;;15.30;6.92;;;;;;;2.81;62.67;98106.19;1823650;79;21137;-78
2021/04/25 01:24:47;;;;;;;12.23;6.47;;;;;;;2.84;62.88;98106.62;1821090;79;21114;-77
2021/04/25 01:27:14;;;;;;;13.93;7.00;;;;;;;2.86;62.42;98103.14;1787467;80;21144;-78
2021/04/25 01:29:42;;;;;;;12.35;6.80;;;;;;;2.86;62.76;98101.83;1797107;80;21138;-77
2021/04/25 01:32:09;;;;;;;16.77;7.35;;;;;;;2.83;63.09;98100.50;1803845;79;21107;-78
2021/04/25 01:34:37;;;;;;;13.53;7.17;;;;;;;2.85;63.62;98094.86;1806734;79;21170;-78
2021/04/25 01:37:05;;;;;;;12.82;7.17;;;;;;;2.88;62.76;98091.38;1806978;79;21137;-78
2021/04/25 01:39:33;;;;;;;14.20;7.62;;;;;;;2.81;64.00;98088.28;1778937;79;21296;-77
2021/04/25 01:42:00;;;;;;;14.80;7.42;;;;;;;2.79;63.60;98087.00;1774230;81;21110;-78
2021/04/25 01:44:28;;;;;;;16.55;8.25;;;;;;;2.77;64.03;98088.72;1776471;79;21281;-78
2021/04/25 01:46:55;;;;;;;15.50;8.05;;;;;;;2.76;63.92;98083.05;1806955;79;21615;-78
2021/04/25 01:49:23;;;;;;;15.20;7.97;;;;;;;2.76;63.81;98075.20;1796112;79;21202;-78
2021/04/25 01:51:50;;;;;;;12.43;6.33;;;;;;;2.74;63.84;98083.48;1843627;77;21265;-78
2021/04/25 01:54:18;;;;;;;13.32;6.67;;;;;;;2.66;64.53;98090.01;1812174;79;21115;-78
2021/04/25 01:56:45;;;;;;;14.00;7.22;;;;;;;2.63;64.31;98093.45;1830951;77;21087;-78
2021/04/25 01:59:13;;;;;;;13.38;7.50;;;;;;;2.67;64.13;98089.55;1854802;77;21170;-78
2021/04/25 02:01:40;;;;;;;12.90;6.58;;;;;;;2.67;63.74;98090.44;1854502;77;21500;-78
2021/04/25 02:04:08;;;;;;;12.65;6.92;;;;;;;2.70;63.62;98081.27;1842429;77;21107;-78
2021/04/25 02:06:41;;;;;;;12.98;7.20;;;;;;;2.71;64.32;98079.13;1845966;77;21238;-78
2021/04/25 02:09:10;;;;;;;14.98;6.83;;;;;;;2.73;64.15;98081.72;1835003;77;21105;-78
2021/04/25 02:11:39;;;;;;;15.70;7.00;;;;;;;2.76;63.83;98079.13;1819388;79;21110;-78
2021/04/25 02:14:07;;;;;;;16.70;7.10;;;;;;;2.76;63.87;98080.01;1819472;79;21132;-77
2021/04/25 02:16:35;;;;;;;13.20;7.25;;;;;;;2.73;64.33;98066.90;1829393;77;21493;-78
2021/04/25 02:19:03;;;;;;;16.25;7.42;;;;;;;2.73;63.96;98069.94;1820575;77;21556;-78
2021/04/25 02:21:33;;;;;;;11.50;7.05;;;;;;;2.64;64.03;98073.41;1854407;77;21118;-78
2021/04/25 02:24:00;;;;;;;12.25;6.80;;;;;;;2.63;64.61;98072.52;1854370;77;21134;-77
2021/04/25 02:26:30;;;;;;;14.65;6.78;;;;;;;2.60;64.69;98071.22;1853923;77;21221;-77
2021/04/25 02:28:57;;;;;;;13.70;7.65;;;;;;;2.58;65.02;98065.55;1854396;77;21253;-78
2021/04/25 02:31:25;;;;;;;11.95;6.67;;;;;;;2.57;64.68;98073.81;1854337;77;21237;-78
2021/04/25 02:33:52;;;;;;;9.83;6.30;;;;;;;2.56;64.78;98066.84;1848371;77;21114;-78
2021/04/25 02:36:21;;;;;;;11.75;6.72;;;;;;;2.57;64.77;98065.97;1851081;77;21138;-78
2021/04/25 02:38:48;;;;;;;11.93;6.03;;;;;;;2.59;64.41;98063.36;1854350;77;21114;-78
2021/04/25 02:41:15;;;;;;;12.28;6.37;;;;;;;2.60;64.85;98062.48;1836074;77;21075;-78
2021/04/25 02:43:43;;;;;;;11.10;6.30;;;;;;;2.57;64.96;98058.12;1852516;77;21134;-78
2021/04/25 02:46:10;;;;;;;10.53;6.60;;;;;;;2.59;64.38;98056.82;1854149;77;21592;-79
2021/04/25 02:48:38;;;;;;;10.70;6.58;;;;;;;2.58;64.47;98053.77;1854387;77;21245;-79
2021/04/25 02:51:05;;;;;;;11.53;5.97;;;;;;;2.60;65.44;98057.25;1854622;77;21126;-79
2021/04/25 02:53:33;;;;;;;12.07;6.03;;;;;;;2.60;65.12;98067.72;1854418;77;21126;-78
2021/04/25 02:56:01;;;;;;;11.75;6.12;;;;;;;2.58;65.14;98058.55;1853614;77;21236;-78
2021/04/25 02:58:29;;;;;;;12.68;5.85;;;;;;;2.57;64.91;98058.12;1854420;77;21264;-78
2021/04/25 03:00:56;;;;;;;12.00;5.87;;;;;;;2.57;64.14;98058.12;1854499;77;21264;-77
2021/04/25 03:03:25;;;;;;;14.35;6.15;;;;;;;2.61;63.99;98051.14;1854373;77;21671;-78
2021/04/25 03:05:55;;;;;;;11.12;5.60;;;;;;;2.64;64.71;98053.78;1841639;77;21077;-77
2021/04/25 03:08:23;;;;;;;12.93;5.95;;;;;;;2.64;65.28;98049.86;1831053;77;21127;-77
2021/04/25 03:10:50;;;;;;;13.58;6.58;;;;;;;2.63;64.68;98052.90;1826501;78;21123;-78
2021/04/25 03:13:19;;;;;;;10.20;5.67;;;;;;;2.62;64.27;98049.84;1834485;77;21115;-77
2021/04/25 03:15:46;;;;;;;9.10;5.83;;;;;;;2.64;64.71;98051.17;1850959;77;21264;-76
2021/04/25 03:18:14;;;;;;;12.85;6.65;;;;;;;2.65;65.20;98054.22;1840778;77;21132;-76
2021/04/25 03:20:42;;;;;;;12.80;6.00;;;;;;;2.64;64.42;98045.94;1825165;78;21171;-75
2021/04/25 03:23:09;;;;;;;11.78;6.25;;;;;;;2.62;64.97;98048.54;1825978;78;21132;-75
2021/04/25 03:25:37;;;;;;;11.20;6.55;;;;;;;2.61;64.80;98041.98;1830891;77;21464;-75
2021/04/25 03:28:05;;;;;;;14.70;6.20;;;;;;;2.62;64.54;98040.69;1853911;77;21138;-75
2021/04/25 03:30:34;;;;;;;10.32;5.62;;;;;;;2.65;64.11;98037.20;1851494;77;21122;-75
2021/04/25 03:33:01;;;;;;;11.25;6.30;;;;;;;2.69;64.26;98033.73;1826490;78;21121;-75
2021/04/25 03:35:28;;;;;;;10.63;5.62;;;;;;;2.70;64.43;98025.01;1826348;78;21078;-75
2021/04/25 03:37:56;;;;;;;12.25;5.72;;;;;;;2.69;63.89;98035.50;1830815;77;21492;-77
2021/04/25 03:40:24;;;;;;;9.00;5.67;;;;;;;2.66;64.85;98041.59;1832741;77;21143;-76
2021/04/25 03:42:51;;;;;;;12.43;5.90;;;;;;;2.63;64.88;98041.58;1821009;79;21304;-76
2021/04/25 03:45:20;;;;;;;9.73;6.65;;;;;;;2.63;64.53;98036.34;1821085;79;21279;-76
2021/04/25 03:47:51;;;;;;;10.35;5.95;;;;;;;2.61;64.92;98040.26;1820887;79;21296;-76
2021/04/25 03:50:23;;;;;;;11.75;5.95;;;;;;;2.60;65.15;98040.25;1821134;79;21627;-76
2021/04/25 03:52:51;;;;;;;8.63;5.42;;;;;;;2.58;65.87;98038.08;1821054;79;21244;-76
2021/04/25 03:55:21;;;;;;;12.15;6.12;;;;;;;2.60;64.76;98050.29;1821072;79;21604;-76
2021/04/25 03:57:49;;;;;;;16.12;6.47;;;;;;;2.63;64.79;98038.96;1821005;79;21123;-77
2021/04/25 04:00:19;;;;;;;10.03;6.03;;;;;;;2.65;65.34;98042.44;1820987;79;21608;-76
2021/04/25 04:02:47;;;;;;;13.95;6.53;;;;;;;2.68;64.62;98033.72;1829446;77;21091;-76
2021/04/25 04:05:15;;;;;;;10.98;5.80;;;;;;;2.68;65.06;98031.11;1850850;77;21130;-76
2021/04/25 04:07:43;;;;;;;14.68;6.92;;;;;;;2.69;64.64;98028.95;1848123;78;21473;-76
2021/04/25 04:10:13;;;;;;;14.13;6.83;;;;;;;2.68;64.49;98034.61;1848011;77;21103;-76
2021/04/25 04:12:41;;;;;;;12.85;7.33;;;;;;;2.65;64.70;98035.90;1850030;77;21122;-76
2021/04/25 04:15:10;;;;;;;12.80;6.42;;;;;;;2.62;64.70;98037.22;1826461;78;21144;-76
2021/04/25 04:17:37;;;;;;;12.47;6.33;;;;;;;2.61;64.55;98036.75;1827362;77;21447;-76
2021/04/25 04:20:07;;;;;;;10.08;5.72;;;;;;;2.60;65.04;98028.47;1848138;78;21120;-76
2021/04/25 04:22:35;;;;;;;10.88;6.22;;;;;;;2.60;64.91;98034.59;1852848;77;21185;-76
2021/04/25 04:25:04;;;;;;;11.03;6.37;;;;;;;2.64;64.67;98040.70;1824322;77;21640;-76
2021/04/25 04:27:32;;;;;;;12.03;6.20;;;;;;;2.63;65.42;98030.66;1837077;77;21129;-76
2021/04/25 04:30:00;;;;;;;15.70;6.70;;;;;;;2.62;65.44;98034.60;1854279;77;21261;-76
2021/04/25 04:32:27;;;;;;;14.58;6.65;;;;;;;2.64;65.35;98031.55;1856443;77;21209;-75
2021/04/25 04:34:56;;;;;;;11.03;6.22;;;;;;;2.66;65.85;98034.17;1824489;77;21116;-75
2021/04/25 04:37:24;;;;;;;12.88;6.20;;;;;;;2.88;64.58;98031.17;1824340;79;21154;-77
2021/04/25 04:39:52;;;;;;;11.57;6.17;;;;;;;2.89;64.56;98028.56;1836596;77;21071;-76
2021/04/25 04:42:19;;;;;;;11.55;6.55;;;;;;;2.89;64.43;98034.22;1827322;77;21274;-75
2021/04/25 04:44:47;;;;;;;12.20;6.05;;;;;;;2.92;64.55;98030.30;1824409;78;21110;-76
2021/04/25 04:47:14;;;;;;;10.80;6.00;;;;;;;2.95;64.59;98030.30;1823826;79;21612;-76
2021/04/25 04:49:42;;;;;;;12.28;6.35;;;;;;;3.01;64.30;98028.13;1820320;78;21069;-77
2021/04/25 04:52:10;;;;;;;11.50;6.50;;;;;;;3.07;63.97;98033.82;1821210;79;21120;-76
2021/04/25 04:54:38;;;;;;;12.35;6.53;;;;;;;3.05;63.68;98032.50;1821388;79;21121;-76
2021/04/25 04:57:06;;;;;;;12.90;6.33;;;;;;;3.06;63.58;98029.00;1821696;79;21474;-76
2021/04/25 04:59:33;;;;;;;9.45;6.47;;;;;;;3.05;64.01;98032.50;1821218;79;21135;-76
2021/04/25 05:02:01;;;;;;;11.75;7.25;;;;;;;3.05;64.03;98022.03;1821523;79;21132;-75
2021/04/25 05:04:28;;;;;;;13.18;7.47;;;;;;;3.12;63.91;98017.67;1821345;79;21137;-76
2021/04/25 05:06:56;;;;;;;11.93;6.40;;;;;;;3.15;64.12;98016.34;1821196;79;21271;-75
2021/04/25 05:09:24;;;;;;;11.05;6.45;;;;;;;3.20;64.80;98021.15;1820900;79;21122;-76
2021/04/25 05:11:51;;;;;;;12.88;6.72;;;;;;;3.26;64.20;98025.53;1810996;79;21148;-76
2021/04/25 05:14:19;;;;;;;12.88;7.22;;;;;;;3.32;64.14;98021.59;1789185;80;21128;-76
2021/04/25 05:16:46;;;;;;;14.87;6.28;;;;;;;3.36;64.14;98024.66;1749389;82;21148;-76
2021/04/25 05:19:13;;;;;;;11.70;6.83;;;;;;;3.39;64.05;98018.11;1746780;81;21114;-76
2021/04/25 05:21:42;;;;;;;12.65;7.20;;;;;;;3.46;64.16;98019.41;1749427;82;21113;-76
2021/04/25 05:24:10;;;;;;;12.73;6.83;;;;;;;3.52;63.41;98017.66;1736816;83;21137;-76
2021/04/25 05:26:38;;;;;;;13.45;6.70;;;;;;;3.59;63.61;98020.27;1751186;81;21121;-76
2021/04/25 05:29:06;;;;;;;10.35;6.70;;;;;;;3.65;63.36;98016.36;1757245;81;21145;-76
2021/04/25 05:31:33;;;;;;;12.85;6.37;;;;;;;3.70;63.68;98020.70;1753833;81;21118;-75
2021/04/25 05:34:02;;;;;;;12.15;6.05;;;;;;;3.76;63.23;98013.70;1756923;82;21150;-76
2021/04/25 05:36:29;;;;;;;13.68;7.25;;;;;;;3.86;63.18;98015.88;1757045;81;21130;-76
2021/04/25 05:38:56;;;;;;;12.10;6.95;;;;;;;3.93;63.04;98005.80;1757083;82;21091;-76
2021/04/25 05:41:24;;;;;;;11.93;7.33;;;;;;;4.02;63.00;98011.02;1778657;81;21124;-76
2021/04/25 05:43:51;;;;;;;12.90;6.67;;;;;;;4.11;62.91;98007.94;1766787;81;21506;-77
2021/04/25 05:46:20;;;;;;;13.80;6.72;;;;;;;4.19;62.98;98009.65;1767202;81;21154;-77
2021/04/25 05:48:49;;;;;;;10.63;6.17;;;;;;;4.29;63.00;98005.68;1785690;79;21453;-75
2021/04/25 05:51:18;;;;;;;12.88;7.00;;;;;;;4.41;62.58;98001.70;1811573;79;21474;-75
2021/04/25 05:53:45;;;;;;;11.95;6.55;;;;;;;4.55;62.55;97996.37;1811528;79;21124;-76
2021/04/25 05:56:13;;;;;;;11.12;6.90;;;;;;;4.71;62.29;98000.22;1811730;79;21144;-75
2021/04/25 05:58:40;;;;;;;13.32;6.47;;;;;;;4.86;62.13;98000.59;1811972;79;21102;-75
2021/04/25 06:01:08;;;;;;;12.53;6.83;;;;;;;5.01;62.25;97989.09;1849729;77;21465;-76
2021/04/25 06:03:36;;;;;;;10.58;6.80;;;;;;;5.13;62.18;97986.81;1836687;77;21133;-76
2021/04/25 06:06:04;;;;;;;11.73;6.10;;;;;;;5.25;61.85;97992.41;1832952;78;21102;-76
2021/04/25 06:08:32;;;;;;;12.05;6.67;;;;;;;5.37;61.87;97990.13;1765600;81;21154;-76
2021/04/25 06:11:00;;;;;;;12.75;6.50;;;;;;;5.49;61.67;97992.62;1853882;77;21093;-76
2021/04/25 06:13:27;;;;;;;12.35;6.20;;;;;;;5.61;60.05;97989.48;1854451;77;21249;-77
2021/04/25 06:15:54;;;;;;;14.75;6.58;;;;;;;5.72;59.19;97985.44;1854285;77;21284;-77
2021/04/25 06:18:22;;;;;;;11.70;6.30;;;;;;;5.81;58.99;97986.20;1854656;77;21119;-77
2021/04/25 06:20:50;;;;;;;9.28;6.45;;;;;;;5.91;58.13;97983.47;1854201;77;21124;-76
2021/04/25 06:23:17;;;;;;;11.15;6.10;;;;;;;6.01;57.98;97985.53;1854362;77;21242;-77
2021/04/25 06:25:45;;;;;;;14.00;6.42;;;;;;;6.10;57.01;97973.63;1834372;77;21136;-77
2021/04/25 06:28:13;;;;;;;12.73;5.90;;;;;;;6.21;56.84;97974.82;1826859;78;21259;-77
2021/04/25 06:30:42;;;;;;;11.95;6.75;;;;;;;6.29;56.16;97973.41;1844521;77;21606;-76
2021/04/25 06:33:13;;;;;;;9.40;5.55;;;;;;;6.38;55.77;97969.34;1847197;77;21212;-76
2021/04/25 06:35:41;;;;;;;9.98;5.50;;;;;;;6.47;55.83;97973.61;1851205;77;21158;-76
2021/04/25 06:38:08;;;;;;;9.70;4.15;;;;;;;6.56;55.77;97971.32;1853631;77;21631;-76
2021/04/25 06:40:36;;;;;;;8.73;5.00;;;;;;;6.65;55.37;97969.88;1854368;77;21614;-76
2021/04/25 06:43:05;;;;;;;8.75;4.55;;;;;;;6.74;54.93;97971.03;1854367;77;21714;-76
2021/04/25 06:45:36;;;;;;;7.42;4.33;;;;;;;6.84;54.91;97969.58;1854540;77;21469;-75
2021/04/25 06:48:04;;;;;;;8.65;4.92;;;;;;;6.95;54.22;97969.43;1854344;77;21273;-77
2021/04/25 06:50:32;;;;;;;9.53;4.70;;;;;;;7.06;53.23;97964.86;1831098;77;21119;-76
2021/04/25 06:52:59;;;;;;;8.28;4.50;;;;;;;7.17;53.08;97961.17;1816246;79;21137;-74
2021/04/25 06:55:27;;;;;;;8.58;4.72;;;;;;;7.28;52.94;97964.95;1816276;78;21491;-75
2021/04/25 06:57:55;;;;;;;8.10;4.53;;;;;;;7.38;52.36;97962.59;1826418;77;21116;-75
2021/04/25 07:00:25;;;;;;;9.73;4.70;;;;;;;7.49;49.67;97959.33;1848444;77;21489;-80
2021/04/25 07:02:55;;;;;;;12.65;6.35;;;;;;;7.65;48.69;97965.64;1849426;77;21505;-80
2021/04/25 07:05:26;;;;;;;8.70;4.50;;;;;;;7.74;50.15;97961.52;1849327;77;21119;-80
2021/04/25 07:07:56;;;;;;;10.72;5.22;;;;;;;7.86;50.24;97965.70;1849756;77;21449;-75
2021/04/25 07:10:25;;;;;;;8.85;5.42;;;;;;;7.98;47.34;97961.08;1848994;77;21095;-76
2021/04/25 07:12:53;;;;;;;10.80;5.72;;;;;;;8.09;49.79;97956.44;1816052;79;21121;-76
2021/04/25 07:15:20;;;;;;;12.35;4.97;;;;;;;8.20;50.29;97952.27;1816187;78;21136;-76
2021/04/25 07:17:49;;;;;;;9.63;5.05;;;;;;;8.31;49.44;97957.34;1816395;77;21114;-76
2021/04/25 07:20:20;;;;;;;9.08;5.30;;;;;;;8.43;49.40;97949.61;1838044;77;21088;-76
2021/04/25 07:22:47;;;;;;;9.30;4.97;;;;;;;8.56;49.66;97952.41;1838730;77;21146;-76
2021/04/25 07:25:20;;;;;;;9.98;5.22;;;;;;;8.67;48.58;97940.28;1834279;77;21469;-74
2021/04/25 07:27:47;;;;;;;9.90;6.33;;;;;;;8.84;46.67;97937.70;1838322;77;21483;-75
2021/04/25 07:30:22;;;;;;;11.35;6.33;;;;;;;8.96;47.11;97946.67;1839744;77;21114;-74
2021/04/25 07:32:50;;;;;;;13.40;6.65;;;;;;;9.05;47.03;97939.44;1839056;77;21126;-75
2021/04/25 07:35:24;;;;;;;10.38;6.37;;;;;;;9.18;48.19;97937.35;1837429;77;21080;-75
2021/04/25 07:37:53;;;;;;;16.32;7.30;;;;;;;9.28;48.28;97937.53;1836770;77;21086;-75
2021/04/25 07:40:25;;;;;;;11.18;6.08;;;;;;;9.36;47.24;97928.08;1840602;77;21446;-76
2021/04/25 07:42:52;;;;;;;12.23;6.40;;;;;;;9.45;47.47;97928.28;1804923;77;21063;-76
2021/04/25 07:45:25;;;;;;;10.10;6.35;;;;;;;9.56;47.36;97930.22;1833620;77;21095;-76
2021/04/25 07:47:55;;;;;;;15.15;7.25;;;;;;;9.67;47.25;97927.73;1836159;77;21490;-75
2021/04/25 07:50:24;;;;;;;9.93;5.75;;;;;;;9.74;47.39;97923.55;1841436;77;21060;-76
2021/04/25 07:52:54;;;;;;;8.80;5.87;;;;;;;9.83;47.25;97922.42;1838479;77;21488;-76
2021/04/25 07:55:24;;;;;;;13.68;5.55;;;;;;;9.97;44.67;97922.50;1846757;77;21241;-76
2021/04/25 07:57:57;;;;;;;8.25;5.53;;;;;;;10.07;43.24;97920.44;1844692;77;21105;-76
2021/04/25 08:00:28;;;;;;;10.35;5.97;;;;;;;10.14;45.51;97920.22;1849459;77;21303;-76
2021/04/25 08:02:59;;;;;;;11.55;5.72;;;;;;;10.19;46.02;97914.80;1846835;77;21087;-76
2021/04/25 08:05:34;;;;;;;9.63;5.72;;;;;;;10.23;45.84;97912.48;1833609;77;21142;-76
2021/04/25 08:08:05;;;;;;;10.08;6.33;;;;;;;10.32;45.66;97911.33;1830607;77;21090;-75
2021/04/25 08:10:39;;;;;;;9.43;5.55;;;;;;;10.45;46.37;97907.00;1843538;77;21090;-76
2021/04/25 08:13:08;;;;;;;10.48;6.45;;;;;;;10.58;44.90;97907.05;1840300;76;21185;-75
2021/04/25 08:15:37;;;;;;;12.65;6.12;;;;;;;10.70;45.11;97905.80;1839638;76;21167;-77
2021/04/25 08:18:05;;;;;;;9.08;5.40;;;;;;;10.76;45.42;97904.73;1843897;76;21134;-77
2021/04/25 08:20:33;;;;;;;9.90;5.50;;;;;;;10.78;43.88;97894.50;1839673;77;21095;-78
2021/04/25 08:23:01;;;;;;;8.10;5.70;;;;;;;10.83;43.24;97889.03;1845870;76;21461;-78
2021/04/25 08:25:29;;;;;;;26.12;13.43;;;;;;;10.92;43.81;97887.89;1839613;76;21150;-80
2021/04/25 08:27:59;;;;;;;20.17;10.25;;;;;;;11.04;44.66;97883.97;1839442;77;21465;-79
2021/04/25 08:30:28;;;;;;;34.92;20.82;;;;;;;11.14;44.44;97885.39;1840016;77;21260;-79
2021/04/25 08:32:57;;;;;;;24.85;13.68;;;;;;;11.27;44.24;97880.98;1850846;77;21226;-79
2021/04/25 08:35:27;;;;;;;25.37;14.23;;;;;;;11.39;43.79;97885.00;1846379;77;21056;-79
2021/04/25 08:37:55;;;;;;;12.53;5.70;;;;;;;11.44;42.81;97883.05;1842926;76;21110;-78
2021/04/25 08:40:23;;;;;;;23.98;6.90;;;;;;;11.49;42.37;97880.65;1827680;77;21102;-82
2021/04/25 08:42:51;;;;;;;12.98;5.30;;;;;;;11.61;42.14;97877.14;1784795;80;22165;-80
2021/04/25 08:45:19;;;;;;;10.90;4.80;;;;;;;11.77;42.67;97870.83;1801318;80;21143;-81
2021/04/25 08:48:01;;;;;;;8.58;5.42;;;;;;;11.91;39.78;97857.52;1791598;78;21166;-81
2021/04/25 08:50:32;;;;;;;7.17;5.12;;;;;;;12.01;41.93;97854.91;1855519;77;21272;-82
2021/04/25 08:53:03;;;;;;;10.43;4.40;;;;;;;12.09;41.64;97854.17;1857871;77;21118;-83
2021/04/25 08:55:32;;;;;;;26.07;14.47;;;;;;;12.18;39.61;97835.70;1857913;77;21150;-83
2021/04/25 08:58:01;;;;;;;12.68;5.00;;;;;;;12.29;41.25;97825.97;1852164;77;21572;-83
2021/04/25 09:00:31;;;;;;;9.95;5.20;;;;;;;12.34;39.63;97830.63;1811212;78;21093;-82
2021/04/25 09:02:59;;;;;;;8.60;4.95;;;;;;;12.41;40.74;97830.81;1832091;77;21098;-82
2021/04/25 09:05:29;;;;;;;5.72;3.80;;;;;;;12.54;40.27;97841.81;1794378;79;21100;-85
2021/04/25 09:08:06;;;;;;;7.97;4.10;;;;;;;12.56;33.49;97817.83;1836104;77;21094;-83
2021/04/25 09:10:40;;;;;;;7.25;3.87;;;;;;;12.57;37.67;97823.55;1857684;77;21311;-81
2021/04/25 09:13:20;;;;;;;5.97;3.90;;;;;;;12.61;38.41;97820.29;1857640;77;21430;-83
2021/04/25 09:15:55;;;;;;;6.10;3.98;;;;;;;12.64;37.28;97817.52;1829297;77;21103;-85
2021/04/25 09:18:36;;;;;;;5.08;3.70;;;;;;;12.70;35.31;97819.07;1829406;77;21299;-83
2021/04/25 09:21:11;;;;;;;8.33;4.12;;;;;;;12.76;36.43;97814.37;1830741;77;21516;-81
2021/04/25 09:23:40;;;;;;;5.67;3.50;;;;;;;12.86;34.21;97817.95;1833345;77;21627;-80
2021/04/25 09:26:11;;;;;;;7.25;3.50;;;;;;;12.94;35.82;97804.75;1825907;77;21185;-84
2021/04/25 09:28:41;;;;;;;8.40;3.80;;;;;;;13.06;35.74;97798.05;1841234;77;21131;-82
2021/04/25 09:31:15;;;;;;;52.83;33.78;;;;;;;13.19;36.24;97795.71;1831320;77;21078;-81
2021/04/25 09:33:57;;;;;;;30.20;14.68;;;;;;;13.37;37.00;97797.63;1838007;77;21098;-83
2021/04/25 09:36:29;;;;;;;8.75;5.47;;;;;;;13.53;37.01;97788.05;1831097;77;21111;-81
2021/04/25 09:39:17;;;;;;;9.63;5.30;;;;;;;13.79;37.35;97786.48;1857174;77;21607;-81
2021/04/25 09:41:47;;;;;;;7.08;5.05;;;;;;;13.87;36.74;97777.64;1854739;77;21146;-87
2021/04/25 09:44:37;;;;;;;8.50;4.75;;;;;;;13.91;36.33;97779.72;1857291;77;21114;-82
2021/04/25 09:47:05;;;;;;;7.15;4.45;;;;;;;13.90;36.78;97780.17;1857801;77;21484;-81
2021/04/25 09:49:52;;;;;;;7.12;4.10;;;;;;;13.96;37.21;97784.36;1848687;77;21210;-81
2021/04/25 09:52:36;;;;;;;9.30;4.40;;;;;;;14.08;37.03;97777.59;1841818;77;21092;-84
2021/04/25 09:55:28;;;;;;;8.10;4.87;;;;;;;14.19;36.34;97775.72;1804177;79;21119;-80
2021/04/25 09:58:00;;;;;;;9.33;4.92;;;;;;;14.25;36.60;97772.30;1818822;77;21100;-78
2021/04/25 10:00:40;;;;;;;8.20;4.62;;;;;;;14.25;36.04;97760.80;1812727;77;21477;-80
2021/04/25 10:03:10;;;;;;;6.47;4.80;;;;;;;14.38;35.13;97759.23;1854363;77;21245;-77
2021/04/25 10:05:58;;;;;;;8.18;4.62;;;;;;;14.61;35.48;97755.91;1811883;77;21109;-79
2021/04/25 10:08:30;;;;;;;7.80;4.15;;;;;;;14.77;35.92;97752.50;1808850;77;21490;-79
2021/04/25 10:11:02;;;;;;;;;;;;;;;14.98;34.56;97741.20;1841965;77;21098;-79
2021/04/25 10:13:32;;;;;;;7.97;4.62;;;;;;;15.13;33.40;97735.55;1845691;77;20201;-80
2021/04/25 10:16:01;;;;;;;7.92;4.58;;;;;;;15.10;34.18;97739.70;1843762;77;21254;-81
2021/04/25 10:18:28;;;;;;;7.97;4.10;;;;;;;15.15;33.21;97726.98;1843073;77;21317;-81
2021/04/25 10:20:57;;;;;;;5.95;3.60;;;;;;;15.22;33.39;97723.98;1834996;77;21106;-79
2021/04/25 10:23:25;;;;;;;6.87;3.98;;;;;;;15.33;32.93;97726.08;1845230;77;21271;-80
2021/04/25 10:25:54;;;;;;;6.65;3.25;;;;;;;15.42;31.67;97728.27;1853768;77;21241;-78
2021/04/25 10:28:49;;;;;;;6.75;3.72;;;;;;;15.51;31.91;97717.55;1846734;77;21524;-79
2021/04/25 10:31:28;;;;;;;;;;;;;;;15.62;31.69;97715.17;1846352;77;22155;-79
2021/04/25 10:34:05;;;;;;;6.45;3.40;;;;;;;15.80;31.46;97709.28;1843708;77;20107;-81
2021/04/25 10:36:51;;;;;;;4.78;3.05;;;;;;;16.06;32.44;97701.63;1834633;77;21130;-79
2021/04/25 10:39:50;;;;;;;5.28;2.98;;;;;;;16.48;30.60;97707.27;1844046;77;21099;-76
2021/04/25 10:42:32;;;;;;;6.80;3.20;;;;;;;17.17;28.00;97697.91;1847141;77;21154;-78
2021/04/25 10:45:18;;;;;;;5.10;3.27;;;;;;;18.44;28.22;97693.02;1819887;77;21113;-77
2021/04/25 10:47:48;;;;;;;45.28;31.95;;;;;;;18.13;25.38;97689.69;1842430;77;21142;-76
2021/04/25 10:50:34;;;;;;;5.62;4.22;;;;;;;18.05;26.12;97695.99;1815145;77;21075;-76
2021/04/25 10:53:25;;;;;;;9.00;5.55;;;;;;;17.83;27.66;97688.48;1845420;77;21607;-78
2021/04/25 10:56:20;;;;;;;5.60;3.25;;;;;;;17.72;27.49;97692.72;1845707;77;21626;-75
2021/04/25 10:59:26;;;;;;;5.10;3.50;;;;;;;17.69;28.26;97688.91;1848438;77;21095;-76
2021/04/25 11:01:56;;;;;;;;;;;;;;;18.18;27.42;97687.56;1849189;77;21252;-76
2021/04/25 11:05:04;;;;;;;5.17;3.05;;;;;;;18.70;27.42;97687.73;1848532;77;20779;-76
2021/04/25 11:07:36;;;;;;;8.10;3.12;;;;;;;19.31;26.71;97682.25;1839203;77;21134;-76
2021/04/25 11:10:08;;;;;;;4.87;2.90;;;;;;;20.28;25.94;97681.63;1834416;77;21113;-75
2021/04/25 11:12:45;;;;;;;5.15;2.70;;;;;;;20.65;21.06;97681.16;1835012;77;21103;-76
2021/04/25 11:15:49;;;;;;;5.22;2.80;;;;;;;21.30;20.59;97670.80;1843570;77;21237;-76
2021/04/25 11:18:44;;;;;;;5.62;2.77;;;;;;;21.60;20.41;97660.39;1838285;77;21123;-77
2021/04/25 11:21:42;;;;;;;5.67;2.70;;;;;;;22.78;21.04;97660.22;1846788;77;21210;-76
2021/04/25 11:24:14;;;;;;;4.75;3.00;;;;;;;23.51;18.41;97661.23;1843896;77;21258;-77
2021/04/25 11:26:52;;;;;;;3.83;2.85;;;;;;;24.12;17.85;97658.56;1843477;77;21217;-77
2021/04/25 11:29:42;;;;;;;5.05;2.92;;;;;;;23.80;16.60;97642.91;1837450;77;21215;-77
2021/04/25 11:32:25;;;;;;;5.08;2.92;;;;;;;23.65;16.01;97642.41;1820902;79;21474;-76
2021/04/25 11:35:04;;;;;;;4.55;2.95;;;;;;;23.70;16.80;97627.98;1820968;79;21272;-76
2021/04/25 11:37:32;;;;;;;5.55;3.47;;;;;;;24.31;18.00;97621.20;1820891;79;21102;-76
2021/04/25 11:40:07;;;;;;;5.70;3.10;;;;;;;24.47;18.23;97621.98;1823277;77;21616;-77
2021/04/25 11:42:49;;;;;;;6.28;3.25;;;;;;;23.88;18.89;97625.97;1826071;78;21167;-76
2021/04/25 11:45:26;;;;;;;3.40;2.62;;;;;;;23.85;19.46;97617.63;1832846;77;21150;-79
2021/04/25 11:48:00;;;;;;;5.42;3.37;;;;;;;24.71;17.34;97613.05;1844869;77;21137;-80
2021/04/25 11:50:32;;;;;;;5.12;3.10;;;;;;;25.24;18.95;97612.17;1815111;76;21144;-79
2021/04/25 11:53:02;;;;;;;3.60;2.58;;;;;;;24.64;18.06;97609.57;1810652;78;21080;-77
2021/04/25 11:55:32;;;;;;;5.37;3.22;;;;;;;23.91;18.82;97609.95;1826002;78;21580;-79
2021/04/25 11:58:03;;;;;;;3.55;3.17;;;;;;;24.14;19.46;97611.92;1823873;78;21586;-85
2021/04/25 12:00:41;;;;;;;5.30;2.77;;;;;;;24.44;17.74;97605.14;1748794;80;21100;-76